createdAt,value
2023-05-14T00:00:36.596Z,95031.00
2023-05-14T00:01:36.600Z,95033.00
2023-05-14T00:02:37.692Z,95031.00
2023-05-14T00:03:37.748Z,95033.00
2023-05-14T00:04:36.698Z,95033.00
2023-05-14T00:05:36.644Z,95027.00
2023-05-14T00:06:36.632Z,95031.00
2023-05-14T00:07:39.084Z,95029.00
2023-05-14T00:08:36.755Z,95029.00
2023-05-14T00:09:36.803Z,95031.00
2023-05-14T00:10:36.845Z,95031.00
2023-05-14T00:11:36.858Z,95029.00
2023-05-14T00:12:36.916Z,95031.00
2023-05-14T00:13:37.019Z,95029.00
2023-05-14T00:14:37.121Z,95031.00
2023-05-14T00:15:37.199Z,95029.00
2023-05-14T00:16:37.204Z,95027.00
2023-05-14T00:17:37.202Z,95025.00
2023-05-14T00:18:37.307Z,95025.00
2023-05-14T00:19:37.371Z,95027.00
2023-05-14T00:20:37.391Z,95027.00
2023-05-14T00:21:37.496Z,95023.00
2023-05-14T00:22:38.459Z,95023.00
2023-05-14T00:23:37.461Z,95019.00
2023-05-14T00:24:37.504Z,95023.00
2023-05-14T00:25:37.489Z,95017.00
2023-05-14T00:26:37.412Z,95017.00
2023-05-14T00:27:37.498Z,95017.00
2023-05-14T00:28:37.407Z,95015.00
2023-05-14T00:29:37.453Z,95015.00
2023-05-14T00:30:37.509Z,95013.00
2023-05-14T00:31:37.518Z,95013.00
2023-05-14T00:32:37.671Z,95013.00
2023-05-14T00:33:37.680Z,95013.00
2023-05-14T00:34:38.127Z,95013.00
2023-05-14T00:35:37.749Z,95015.00
2023-05-14T00:36:37.887Z,95017.00
2023-05-14T00:37:37.866Z,95017.00
2023-05-14T00:38:37.964Z,95017.00
2023-05-14T00:39:38.143Z,95019.00
2023-05-14T00:40:38.043Z,95019.00
2023-05-14T00:41:38.136Z,95021.00
2023-05-14T00:42:38.186Z,95019.00
2023-05-14T00:43:38.304Z,95019.00
2023-05-14T00:44:38.673Z,95019.00
2023-05-14T00:45:38.356Z,95021.00
2023-05-14T00:46:38.429Z,95025.00
2023-05-14T00:47:38.514Z,95021.00
2023-05-14T00:48:38.533Z,95023.00
2023-05-14T00:49:38.594Z,95017.00
2023-05-14T00:50:38.725Z,95021.00
2023-05-14T00:51:38.700Z,95023.00
2023-05-14T00:52:38.767Z,95021.00
2023-05-14T00:53:38.833Z,95023.00
2023-05-14T00:54:38.918Z,95017.00
2023-05-14T00:55:38.937Z,95021.00
2023-05-14T00:56:39.051Z,95019.00
2023-05-14T00:57:39.070Z,95019.00
2023-05-14T00:58:39.196Z,95023.00
2023-05-14T00:59:39.194Z,95021.00
2023-05-14T01:00:40.202Z,95021.00
2023-05-14T01:01:39.308Z,95021.00
2023-05-14T01:02:39.417Z,95021.00
2023-05-14T01:03:40.194Z,95019.00
2023-05-14T01:04:40.141Z,95021.00
2023-05-14T01:05:39.645Z,95021.00
2023-05-14T01:06:39.539Z,95019.00
2023-05-14T01:07:39.668Z,95017.00
2023-05-14T01:08:39.572Z,95017.00
2023-05-14T01:09:39.611Z,95011.00
2023-05-14T01:10:39.667Z,95013.00
2023-05-14T01:11:40.630Z,95011.00
2023-05-14T01:12:39.762Z,95011.00
2023-05-14T01:13:39.775Z,95011.00
2023-05-14T01:14:39.861Z,95011.00
2023-05-14T01:15:39.904Z,95009.00
2023-05-14T01:16:39.881Z,95009.00
2023-05-14T01:17:39.994Z,95005.00
2023-05-14T01:18:40.655Z,95011.00
2023-05-14T01:19:40.030Z,95011.00
2023-05-14T01:20:40.090Z,95009.00
2023-05-14T01:21:40.151Z,95011.00
2023-05-14T01:22:40.151Z,95015.00
2023-05-14T01:23:40.175Z,95009.00
2023-05-14T01:24:40.136Z,95011.00
2023-05-14T01:25:40.624Z,95009.00
2023-05-14T01:26:40.203Z,95011.00
2023-05-14T01:27:40.241Z,95017.00
2023-05-14T01:28:40.226Z,95013.00
2023-05-14T01:29:40.209Z,95009.00
2023-05-14T01:30:40.618Z,95011.00
2023-05-14T01:31:40.228Z,95009.00
2023-05-14T01:32:40.269Z,95009.00
2023-05-14T01:33:40.225Z,95009.00
2023-05-14T01:34:40.235Z,95007.00
2023-05-14T01:35:40.622Z,95007.00
2023-05-14T01:36:40.177Z,95013.00
2023-05-14T01:37:40.176Z,95011.00
2023-05-14T01:38:40.248Z,95011.00
2023-05-14T01:39:40.315Z,95011.00
2023-05-14T01:40:40.639Z,95009.00
2023-05-14T01:41:40.322Z,95015.00
2023-05-14T01:42:40.341Z,95015.00
2023-05-14T01:43:40.397Z,95019.00
2023-05-14T01:44:40.366Z,95011.00
2023-05-14T01:45:40.410Z,95015.00
2023-05-14T01:46:40.574Z,95017.00
2023-05-14T01:47:40.500Z,95013.00
2023-05-14T01:48:40.400Z,95009.00
2023-05-14T01:49:40.365Z,95009.00
2023-05-14T01:50:40.409Z,95011.00
2023-05-14T01:51:40.403Z,95011.00
2023-05-14T01:52:41.379Z,95015.00
2023-05-14T01:53:40.416Z,95015.00
2023-05-14T01:54:50.388Z,95011.00
2023-05-14T01:55:40.341Z,95015.00
2023-05-14T01:56:51.512Z,95007.00
2023-05-14T01:57:54.982Z,95011.00
2023-05-14T01:58:40.601Z,95013.00
2023-05-14T01:59:40.619Z,95011.00
2023-05-14T02:00:50.706Z,95007.00
2023-05-14T02:03:10.548Z,95009.00
2023-05-14T02:04:10.639Z,95001.00
2023-05-14T02:05:16.517Z,95007.00
2023-05-14T02:06:02.152Z,95003.00
2023-05-14T02:07:00.264Z,95001.00
2023-05-14T02:08:00.269Z,95003.00
2023-05-14T02:09:10.318Z,94999.00
2023-05-14T02:10:00.252Z,94999.00
2023-05-14T02:11:00.555Z,94997.00
2023-05-14T02:12:00.262Z,94999.00
2023-05-14T02:13:00.212Z,94999.00
2023-05-14T02:14:00.236Z,94997.00
2023-05-14T02:15:00.206Z,94995.00
2023-05-14T02:16:00.618Z,94995.00
2023-05-14T02:17:00.232Z,94993.00
2023-05-14T02:18:00.196Z,94993.00
2023-05-14T02:19:00.274Z,94991.00
2023-05-14T02:20:00.194Z,94991.00
2023-05-14T02:21:00.606Z,94991.00
2023-05-14T02:22:00.182Z,94993.00
2023-05-14T02:23:00.144Z,94989.00
2023-05-14T02:24:00.165Z,94989.00
2023-05-14T02:25:00.232Z,94993.00
2023-05-14T02:26:00.211Z,94991.00
2023-05-14T02:27:00.142Z,94989.00
2023-05-14T02:28:00.135Z,94989.00
2023-05-14T02:29:00.101Z,94989.00
2023-05-14T02:30:00.115Z,94987.00
2023-05-14T02:31:01.120Z,94987.00
2023-05-14T02:32:00.120Z,94986.00
2023-05-14T02:33:00.166Z,94986.00
2023-05-14T02:34:00.034Z,94984.00
2023-05-14T02:35:00.037Z,94984.00
2023-05-14T02:36:00.083Z,94987.00
2023-05-14T02:37:00.034Z,94984.00
2023-05-14T02:38:00.058Z,94984.00
2023-05-14T02:39:00.021Z,94982.00
2023-05-14T02:40:00.044Z,94982.00
2023-05-14T02:41:00.049Z,94980.00
2023-05-14T02:42:00.057Z,94982.00
2023-05-14T02:43:00.098Z,94980.00
2023-05-14T02:44:00.047Z,94980.00
2023-05-14T02:45:00.024Z,94978.00
2023-05-14T02:46:00.071Z,94978.00
2023-05-14T02:47:00.014Z,94976.00
2023-05-14T02:48:00.081Z,94974.00
2023-05-14T02:49:00.010Z,94976.00
2023-05-14T02:49:59.938Z,94974.00
2023-05-14T02:50:59.941Z,94976.00
2023-05-14T02:51:59.926Z,94974.00
2023-05-14T02:52:59.924Z,94972.00
2023-05-14T02:53:59.976Z,94972.00
2023-05-14T02:55:00.033Z,94972.00
2023-05-14T02:55:59.997Z,94972.00
2023-05-14T02:57:00.047Z,94972.00
2023-05-14T02:58:00.062Z,94972.00
2023-05-14T02:59:00.074Z,94970.00
2023-05-14T03:00:00.170Z,94972.00
2023-05-14T03:01:00.627Z,94968.00
2023-05-14T03:02:00.180Z,94966.00
2023-05-14T03:03:00.210Z,94966.00
2023-05-14T03:04:00.185Z,94966.00
2023-05-14T03:05:00.224Z,94968.00
2023-05-14T03:06:00.623Z,94966.00
2023-05-14T03:07:00.230Z,94968.00
2023-05-14T03:08:00.236Z,94964.00
2023-05-14T03:09:00.332Z,94964.00
2023-05-14T03:10:00.337Z,94966.00
2023-05-14T03:11:00.601Z,94968.00
2023-05-14T03:12:00.375Z,94968.00
2023-05-14T03:13:00.381Z,94968.00
2023-05-14T03:14:00.376Z,94972.00
2023-05-14T03:15:00.519Z,94970.00
2023-05-14T03:16:00.601Z,94970.00
2023-05-14T03:17:00.497Z,94970.00
2023-05-14T03:18:00.534Z,94966.00
2023-05-14T03:19:00.658Z,94964.00
2023-05-14T03:20:00.586Z,94966.00
2023-05-14T03:21:00.652Z,94962.00
2023-05-14T03:22:00.594Z,94954.00
2023-05-14T03:23:00.626Z,94960.00
2023-05-14T03:24:00.650Z,94960.00
2023-05-14T03:25:00.694Z,94958.00
2023-05-14T03:26:00.753Z,94958.00
2023-05-14T03:27:00.740Z,94958.00
2023-05-14T03:28:00.815Z,94952.00
2023-05-14T03:29:00.857Z,94954.00
2023-05-14T03:30:00.918Z,94954.00
2023-05-14T03:31:01.246Z,94952.00
2023-05-14T03:32:00.941Z,94952.00
2023-05-14T03:33:00.983Z,94952.00
2023-05-14T03:34:01.004Z,94956.00
2023-05-14T03:35:01.045Z,94958.00
2023-05-14T03:36:01.050Z,94956.00
2023-05-14T03:37:01.081Z,94954.00
2023-05-14T03:38:01.071Z,94954.00
2023-05-14T03:39:01.114Z,94954.00
2023-05-14T03:40:01.212Z,94956.00
2023-05-14T03:41:01.573Z,94958.00
2023-05-14T03:42:01.222Z,94956.00
2023-05-14T03:43:01.203Z,94958.00
2023-05-14T03:44:01.233Z,94958.00
2023-05-14T03:45:01.287Z,94958.00
2023-05-14T03:46:01.711Z,94962.00
2023-05-14T03:47:01.311Z,94960.00
2023-05-14T03:48:01.436Z,94958.00
2023-05-14T03:49:01.426Z,94964.00
2023-05-14T03:50:01.347Z,94964.00
2023-05-14T03:51:01.403Z,94966.00
2023-05-14T03:52:01.412Z,94964.00
2023-05-14T03:53:01.447Z,94966.00
2023-05-14T03:54:01.513Z,94964.00
2023-05-14T03:55:01.518Z,94966.00
2023-05-14T03:56:01.728Z,94968.00
2023-05-14T03:57:01.625Z,94964.00
2023-05-14T03:58:01.573Z,94970.00
2023-05-14T03:59:01.595Z,94970.00
2023-05-14T04:00:01.651Z,94970.00
2023-05-14T04:01:01.720Z,94968.00
2023-05-14T04:02:01.734Z,94968.00
2023-05-14T04:03:01.911Z,94968.00
2023-05-14T04:04:01.954Z,94968.00
2023-05-14T04:05:01.840Z,94966.00
2023-05-14T04:06:01.837Z,94966.00
2023-05-14T04:07:01.845Z,94964.00
2023-05-14T04:08:01.893Z,94966.00
2023-05-14T04:09:01.945Z,94964.00
2023-05-14T04:10:04.401Z,94964.00
2023-05-14T04:11:01.983Z,94964.00
2023-05-14T04:12:02.045Z,94964.00
2023-05-14T04:13:01.989Z,94964.00
2023-05-14T04:14:01.981Z,94960.00
2023-05-14T04:15:01.978Z,94958.00
2023-05-14T04:16:01.940Z,94956.00
2023-05-14T04:17:01.944Z,94956.00
2023-05-14T04:18:01.977Z,94954.00
2023-05-14T04:19:01.951Z,94956.00
2023-05-14T04:20:02.029Z,94954.00
2023-05-14T04:21:01.898Z,94954.00
2023-05-14T04:22:01.898Z,94954.00
2023-05-14T04:23:02.014Z,94952.00
2023-05-14T04:24:01.873Z,94950.00
2023-05-14T04:25:01.899Z,94954.00
2023-05-14T04:26:01.873Z,94950.00
2023-05-14T04:27:01.893Z,94950.00
2023-05-14T04:28:01.956Z,94956.00
2023-05-14T04:29:01.839Z,94952.00
2023-05-14T04:30:01.833Z,94950.00
2023-05-14T04:31:01.810Z,94950.00
2023-05-14T04:32:01.855Z,94948.00
2023-05-14T04:33:01.876Z,94950.00
2023-05-14T04:34:01.824Z,94950.00
2023-05-14T04:35:01.801Z,94950.00
2023-05-14T04:36:02.097Z,94950.00
2023-05-14T04:37:01.874Z,94950.00
2023-05-14T04:38:01.790Z,94952.00
2023-05-14T04:39:01.764Z,94958.00
2023-05-14T04:40:01.774Z,94958.00
2023-05-14T04:41:02.139Z,94958.00
2023-05-14T04:42:01.738Z,94958.00
2023-05-14T04:43:01.817Z,94960.00
2023-05-14T04:44:01.755Z,94960.00
2023-05-14T04:45:01.747Z,94962.00
2023-05-14T04:46:01.766Z,94956.00
2023-05-14T04:47:01.730Z,94958.00
2023-05-14T04:48:01.836Z,94956.00
2023-05-14T04:49:01.767Z,94956.00
2023-05-14T04:50:01.728Z,94956.00
2023-05-14T04:51:01.680Z,94954.00
2023-05-14T04:52:01.684Z,94956.00
2023-05-14T04:53:01.693Z,94956.00
2023-05-14T04:54:01.687Z,94958.00
2023-05-14T04:55:01.671Z,94956.00
2023-05-14T04:56:01.681Z,94956.00
2023-05-14T04:57:01.667Z,94956.00
2023-05-14T04:58:01.776Z,94958.00
2023-05-14T04:59:01.650Z,94956.00
2023-05-14T05:00:01.623Z,94956.00
2023-05-14T05:01:01.656Z,94956.00
2023-05-14T05:02:01.641Z,94952.00
2023-05-14T05:03:01.710Z,94952.00
2023-05-14T05:04:01.669Z,94952.00
2023-05-14T05:05:01.596Z,94950.00
2023-05-14T05:06:01.622Z,94954.00
2023-05-14T05:07:01.686Z,94958.00
2023-05-14T05:08:01.727Z,94958.00
2023-05-14T05:09:02.426Z,94958.00
2023-05-14T05:10:01.857Z,94960.00
2023-05-14T05:11:01.838Z,94960.00
2023-05-14T05:12:01.896Z,94960.00
2023-05-14T05:13:01.896Z,94960.00
2023-05-14T05:14:01.892Z,94964.00
2023-05-14T05:15:01.993Z,94962.00
2023-05-14T05:16:02.162Z,94964.00
2023-05-14T05:17:02.025Z,94960.00
2023-05-14T05:18:02.157Z,94960.00
2023-05-14T05:19:02.182Z,94960.00
2023-05-14T05:20:02.120Z,94958.00
2023-05-14T05:21:02.209Z,94962.00
2023-05-14T05:22:02.250Z,94958.00
2023-05-14T05:23:02.223Z,94960.00
2023-05-14T05:24:02.275Z,94958.00
2023-05-14T05:25:02.299Z,94958.00
2023-05-14T05:26:02.396Z,94960.00
2023-05-14T05:27:02.399Z,94960.00
2023-05-14T05:28:02.424Z,94962.00
2023-05-14T05:29:02.489Z,94964.00
2023-05-14T05:30:02.534Z,94966.00
2023-05-14T05:31:02.662Z,94964.00
2023-05-14T05:32:02.552Z,94960.00
2023-05-14T05:33:02.676Z,94958.00
2023-05-14T05:34:02.639Z,94960.00
2023-05-14T05:35:02.662Z,94958.00
2023-05-14T05:36:02.764Z,94956.00
2023-05-14T05:37:02.740Z,94958.00
2023-05-14T05:38:02.794Z,94958.00
2023-05-14T05:39:02.768Z,94958.00
2023-05-14T05:40:02.834Z,94958.00
2023-05-14T05:41:02.848Z,94962.00
2023-05-14T05:43:02.910Z,94958.00
2023-05-14T05:44:02.922Z,94956.00
2023-05-14T05:45:02.977Z,94954.00
2023-05-14T05:46:03.068Z,94952.00
2023-05-14T05:47:03.065Z,94952.00
2023-05-14T05:48:03.180Z,94952.00
2023-05-14T05:49:03.050Z,94948.00
2023-05-14T05:50:03.115Z,94952.00
2023-05-14T05:51:03.153Z,94952.00
2023-05-14T05:52:03.172Z,94948.00
2023-05-14T05:53:03.198Z,94948.00
2023-05-14T05:54:03.224Z,94954.00
2023-05-14T05:55:03.300Z,94952.00
2023-05-14T05:56:03.616Z,94952.00
2023-05-14T05:57:03.342Z,94952.00
2023-05-14T05:58:03.312Z,94948.00
2023-05-14T05:59:03.370Z,94948.00
2023-05-14T06:00:03.384Z,94946.00
2023-05-14T06:01:03.401Z,94948.00
2023-05-14T06:02:03.438Z,94944.00
2023-05-14T06:03:03.503Z,94946.00
2023-05-14T06:04:03.417Z,94942.00
2023-05-14T06:05:03.567Z,94944.00
2023-05-14T06:06:03.472Z,94940.00
2023-05-14T06:07:03.484Z,94942.00
2023-05-14T06:08:03.495Z,94940.00
2023-05-14T06:09:03.548Z,94939.00
2023-05-14T06:10:03.554Z,94939.00
2023-05-14T06:11:03.656Z,94939.00
2023-05-14T06:12:03.621Z,94939.00
2023-05-14T06:13:03.580Z,94939.00
2023-05-14T06:14:03.663Z,94944.00
2023-05-14T06:15:03.630Z,94944.00
2023-05-14T06:16:03.707Z,94944.00
2023-05-14T06:17:03.685Z,94946.00
2023-05-14T06:18:03.729Z,94940.00
2023-05-14T06:19:03.796Z,94939.00
2023-05-14T06:20:03.724Z,94937.00
2023-05-14T06:21:04.135Z,94933.00
2023-05-14T06:22:03.806Z,94933.00
2023-05-14T06:23:03.832Z,94929.00
2023-05-14T06:24:03.829Z,94929.00
2023-05-14T06:25:03.865Z,94929.00
2023-05-14T06:26:03.860Z,94933.00
2023-05-14T06:27:04.130Z,94933.00
2023-05-14T06:28:03.883Z,94929.00
2023-05-14T06:29:03.952Z,94929.00
2023-05-14T06:30:03.915Z,94927.00
2023-05-14T06:31:03.876Z,94925.00
2023-05-14T06:32:03.978Z,94923.00
2023-05-14T06:33:04.049Z,94925.00
2023-05-14T06:34:03.900Z,94925.00
2023-05-14T06:35:04.028Z,94923.00
2023-05-14T06:36:03.988Z,94923.00
2023-05-14T06:37:04.060Z,94925.00
2023-05-14T06:38:04.010Z,94925.00
2023-05-14T06:39:04.003Z,94921.00
2023-05-14T06:40:04.068Z,94921.00
2023-05-14T06:41:04.091Z,94921.00
2023-05-14T06:42:04.090Z,94921.00
2023-05-14T06:43:04.074Z,94921.00
2023-05-14T06:44:04.138Z,94921.00
2023-05-14T06:45:04.184Z,94923.00
2023-05-14T06:46:04.208Z,94925.00
2023-05-14T06:47:04.225Z,94923.00
2023-05-14T06:48:04.299Z,94923.00
2023-05-14T06:49:04.349Z,94923.00
2023-05-14T06:50:04.356Z,94925.00
2023-05-14T06:51:04.402Z,94927.00
2023-05-14T06:52:04.663Z,94925.00
2023-05-14T06:53:04.406Z,94925.00
2023-05-14T06:54:04.484Z,94921.00
2023-05-14T06:55:04.480Z,94923.00
2023-05-14T06:56:04.489Z,94919.00
2023-05-14T06:57:04.636Z,94923.00
2023-05-14T06:58:04.599Z,94923.00
2023-05-14T06:59:04.627Z,94925.00
2023-05-14T07:00:04.714Z,94925.00
2023-05-14T07:01:04.821Z,94923.00
2023-05-14T07:02:04.813Z,94925.00
2023-05-14T07:03:04.975Z,94921.00
2023-05-14T07:04:04.950Z,94923.00
2023-05-14T07:05:05.008Z,94923.00
2023-05-14T07:06:05.050Z,94921.00
2023-05-14T07:07:05.127Z,94919.00
2023-05-14T07:08:05.177Z,94917.00
2023-05-14T07:09:05.239Z,94917.00
2023-05-14T07:10:05.309Z,94915.00
2023-05-14T07:11:05.331Z,94913.00
2023-05-14T07:12:05.373Z,94911.00
2023-05-14T07:13:05.468Z,94913.00
2023-05-14T07:14:05.477Z,94913.00
2023-05-14T07:15:05.547Z,94913.00
2023-05-14T07:16:05.617Z,94913.00
2023-05-14T07:17:05.669Z,94913.00
2023-05-14T07:18:05.769Z,94911.00
2023-05-14T07:19:05.839Z,94909.00
2023-05-14T07:20:05.808Z,94909.00
2023-05-14T07:21:05.825Z,94913.00
2023-05-14T07:22:05.937Z,94911.00
2023-05-14T07:23:05.969Z,94907.00
2023-05-14T07:24:05.996Z,94905.00
2023-05-14T07:25:06.131Z,94903.00
2023-05-14T07:26:06.128Z,94901.00
2023-05-14T07:27:06.201Z,94891.00
2023-05-14T07:28:06.229Z,94889.00
2023-05-14T07:29:06.310Z,94886.00
2023-05-14T07:30:06.415Z,94882.00
2023-05-14T07:31:06.430Z,94880.00
2023-05-14T07:32:06.483Z,94878.00
2023-05-14T07:33:06.589Z,94878.00
2023-05-14T07:34:06.567Z,94880.00
2023-05-14T07:35:06.578Z,94878.00
2023-05-14T07:36:06.687Z,94878.00
2023-05-14T07:37:06.713Z,94874.00
2023-05-14T07:38:06.767Z,94872.00
2023-05-14T07:39:06.785Z,94870.00
2023-05-14T07:40:06.768Z,94868.00
2023-05-14T07:41:06.819Z,94866.00
2023-05-14T07:42:06.816Z,94864.00
2023-05-14T07:43:06.872Z,94864.00
2023-05-14T07:44:06.978Z,94866.00
2023-05-14T07:45:06.968Z,94864.00
2023-05-14T07:46:06.989Z,94862.00
2023-05-14T07:47:07.028Z,94858.00
2023-05-14T07:48:07.015Z,94854.00
2023-05-14T07:49:06.990Z,94854.00
2023-05-14T07:50:06.993Z,94858.00
2023-05-14T07:51:07.023Z,94856.00
2023-05-14T07:52:07.025Z,94860.00
2023-05-14T07:53:07.065Z,94856.00
2023-05-14T07:54:07.097Z,94856.00
2023-05-14T07:55:07.185Z,94858.00
2023-05-14T07:56:07.160Z,94856.00
2023-05-14T07:57:07.226Z,94856.00
2023-05-14T07:58:07.279Z,94854.00
2023-05-14T07:59:07.356Z,94854.00
2023-05-14T08:00:07.425Z,94854.00
2023-05-14T08:01:07.520Z,94852.00
2023-05-14T08:02:07.556Z,94852.00
2023-05-14T08:03:07.777Z,94848.00
2023-05-14T08:04:07.968Z,94846.00
2023-05-14T08:05:07.721Z,94842.00
2023-05-14T08:06:07.697Z,94842.00
2023-05-14T08:07:07.726Z,94840.00
2023-05-14T08:08:07.754Z,94840.00
2023-05-14T08:09:07.775Z,94835.00
2023-05-14T08:10:07.883Z,94835.00
2023-05-14T08:11:07.917Z,94837.00
2023-05-14T08:12:07.953Z,94833.00
2023-05-14T08:13:08.024Z,94833.00
2023-05-14T08:14:08.085Z,94831.00
2023-05-14T08:15:08.163Z,94831.00
2023-05-14T08:16:08.182Z,94831.00
2023-05-14T08:17:08.265Z,94823.00
2023-05-14T08:18:08.378Z,94825.00
2023-05-14T08:19:08.496Z,94823.00
2023-05-14T08:20:08.449Z,94821.00
2023-05-14T08:21:08.521Z,94819.00
2023-05-14T08:22:08.542Z,94817.00
2023-05-14T08:23:08.596Z,94823.00
2023-05-14T08:24:08.657Z,94823.00
2023-05-14T08:25:08.754Z,94821.00
2023-05-14T08:26:08.739Z,94819.00
2023-05-14T08:27:08.784Z,94817.00
2023-05-14T08:28:08.789Z,94819.00
2023-05-14T08:29:10.701Z,94815.00
2023-05-14T08:30:08.859Z,94815.00
2023-05-14T08:31:08.968Z,94817.00
2023-05-14T08:32:22.048Z,94813.00
2023-05-14T08:33:10.024Z,94811.00
2023-05-14T08:34:08.866Z,94811.00
2023-05-14T08:35:08.894Z,94809.00
2023-05-14T08:36:08.886Z,94809.00
2023-05-14T08:37:08.884Z,94809.00
2023-05-14T08:38:08.839Z,94807.00
2023-05-14T08:39:08.853Z,94809.00
2023-05-14T08:40:08.883Z,94807.00
2023-05-14T08:41:08.836Z,94811.00
2023-05-14T08:42:09.150Z,94811.00
2023-05-14T08:43:08.950Z,94811.00
2023-05-14T08:44:08.821Z,94809.00
2023-05-14T08:45:08.818Z,94805.00
2023-05-14T08:46:08.923Z,94803.00
2023-05-14T08:47:08.820Z,94807.00
2023-05-14T08:48:08.942Z,94805.00
2023-05-14T08:49:08.815Z,94807.00
2023-05-14T08:50:08.787Z,94803.00
2023-05-14T08:51:08.796Z,94801.00
2023-05-14T08:52:08.935Z,94799.00
2023-05-14T08:53:08.946Z,94797.00
2023-05-14T08:54:08.959Z,94795.00
2023-05-14T08:55:08.996Z,94795.00
2023-05-14T08:56:09.209Z,94797.00
2023-05-14T08:57:09.140Z,94799.00
2023-05-14T08:58:09.186Z,94797.00
2023-05-14T08:59:09.277Z,94795.00
2023-05-14T09:00:09.319Z,94795.00
2023-05-14T09:01:09.381Z,94793.00
2023-05-14T09:02:09.530Z,94793.00
2023-05-14T09:03:09.538Z,94793.00
2023-05-14T09:04:09.559Z,94793.00
2023-05-14T09:05:09.553Z,94795.00
2023-05-14T09:06:09.589Z,94792.00
2023-05-14T09:07:09.615Z,94790.00
2023-05-14T09:08:09.619Z,94793.00
2023-05-14T09:09:09.619Z,94792.00
2023-05-14T09:10:09.600Z,94790.00
2023-05-14T09:11:09.751Z,94793.00
2023-05-14T09:12:09.648Z,94792.00
2023-05-14T09:13:09.661Z,94790.00
2023-05-14T09:14:09.670Z,94792.00
2023-05-14T09:15:19.738Z,94793.00
2023-05-14T09:16:19.813Z,94792.00
2023-05-14T09:18:43.525Z,94790.00
2023-05-14T09:19:29.265Z,94788.00
2023-05-14T09:20:41.368Z,94788.00
2023-05-14T09:21:39.315Z,94784.00
2023-05-14T09:22:40.092Z,94784.00
2023-05-14T09:23:41.272Z,94782.00
2023-05-14T09:24:29.234Z,94774.00
2023-05-14T09:25:29.251Z,94776.00
2023-05-14T09:26:29.293Z,94774.00
2023-05-14T09:27:29.251Z,94772.00
2023-05-14T09:28:29.216Z,94772.00
2023-05-14T09:29:29.196Z,94770.00
2023-05-14T09:30:29.240Z,94768.00
2023-05-14T09:31:29.223Z,94766.00
2023-05-14T09:32:29.249Z,94766.00
2023-05-14T09:33:29.182Z,94768.00
2023-05-14T09:34:29.170Z,94766.00
2023-05-14T09:35:29.172Z,94762.00
2023-05-14T09:36:29.129Z,94762.00
2023-05-14T09:37:29.185Z,94758.00
2023-05-14T09:38:29.152Z,94760.00
2023-05-14T09:39:29.141Z,94762.00
2023-05-14T09:40:29.577Z,94758.00
2023-05-14T09:41:29.095Z,94752.00
2023-05-14T09:42:29.588Z,94750.00
2023-05-14T09:43:29.116Z,94748.00
2023-05-14T09:44:29.248Z,94746.00
2023-05-14T09:45:29.143Z,94746.00
2023-05-14T09:46:29.090Z,94743.00
2023-05-14T09:47:29.158Z,94743.00
2023-05-14T09:48:29.249Z,94739.00
2023-05-14T09:49:29.056Z,94741.00
2023-05-14T09:50:29.073Z,94737.00
2023-05-14T09:51:29.069Z,94739.00
2023-05-14T09:52:29.076Z,94737.00
2023-05-14T09:53:29.044Z,94737.00
2023-05-14T09:54:29.050Z,94737.00
2023-05-14T09:55:29.048Z,94735.00
2023-05-14T09:56:29.119Z,94731.00
2023-05-14T09:57:29.138Z,94731.00
2023-05-14T09:58:29.027Z,94729.00
2023-05-14T09:59:29.012Z,94733.00
2023-05-14T10:00:28.992Z,94731.00
2023-05-14T10:01:29.089Z,94729.00
2023-05-14T10:02:29.041Z,94725.00
2023-05-14T10:03:28.988Z,94721.00
2023-05-14T10:04:29.060Z,94725.00
2023-05-14T10:05:28.980Z,94721.00
2023-05-14T10:06:28.968Z,94725.00
2023-05-14T10:07:28.993Z,94727.00
2023-05-14T10:08:28.945Z,94725.00
2023-05-14T10:09:28.919Z,94719.00
2023-05-14T10:10:29.129Z,94719.00
2023-05-14T10:11:28.949Z,94719.00
2023-05-14T10:12:28.927Z,94717.00
2023-05-14T10:13:28.930Z,94719.00
2023-05-14T10:14:28.936Z,94719.00
2023-05-14T10:15:28.872Z,94721.00
2023-05-14T10:16:28.963Z,94715.00
2023-05-14T10:17:28.917Z,94717.00
2023-05-14T10:18:28.885Z,94721.00
2023-05-14T10:19:28.905Z,94717.00
2023-05-14T10:20:28.917Z,94715.00
2023-05-14T10:21:28.864Z,94717.00
2023-05-14T10:22:29.097Z,94711.00
2023-05-14T10:23:28.834Z,94709.00
2023-05-14T10:24:28.831Z,94711.00
2023-05-14T10:25:28.913Z,94713.00
2023-05-14T10:26:28.837Z,94709.00
2023-05-14T10:27:28.805Z,94705.00
2023-05-14T10:28:28.804Z,94707.00
2023-05-14T10:29:28.776Z,94703.00
2023-05-14T10:30:28.781Z,94703.00
2023-05-14T10:31:28.828Z,94699.00
2023-05-14T10:32:28.817Z,94699.00
2023-05-14T10:33:28.767Z,94699.00
2023-05-14T10:34:28.794Z,94701.00
2023-05-14T10:35:28.801Z,94699.00
2023-05-14T10:36:28.818Z,94698.00
2023-05-14T10:37:28.877Z,94698.00
2023-05-14T10:38:28.962Z,94701.00
2023-05-14T10:39:28.960Z,94698.00
2023-05-14T10:40:29.025Z,94699.00
2023-05-14T10:41:29.087Z,94699.00
2023-05-14T10:42:29.190Z,94698.00
2023-05-14T10:43:29.219Z,94694.00
2023-05-14T10:44:29.280Z,94696.00
2023-05-14T10:45:29.349Z,94698.00
2023-05-14T10:46:29.587Z,94698.00
2023-05-14T10:47:29.452Z,94692.00
2023-05-14T10:48:29.552Z,94698.00
2023-05-14T10:49:42.952Z,94696.00
2023-05-14T10:50:30.564Z,94698.00
2023-05-14T10:51:29.675Z,94694.00
2023-05-14T10:52:29.595Z,94694.00
2023-05-14T10:53:29.547Z,94694.00
2023-05-14T10:54:29.560Z,94692.00
2023-05-14T10:55:29.545Z,94690.00
2023-05-14T10:56:29.519Z,94688.00
2023-05-14T10:57:29.557Z,94686.00
2023-05-14T10:58:29.554Z,94682.00
2023-05-14T10:59:29.551Z,94680.00
2023-05-14T11:00:29.506Z,94678.00
2023-05-14T11:01:29.530Z,94672.00
2023-05-14T11:02:29.579Z,94674.00
2023-05-14T11:03:29.629Z,94672.00
2023-05-14T11:04:29.602Z,94670.00
2023-05-14T11:05:29.579Z,94664.00
2023-05-14T11:06:29.635Z,94664.00
2023-05-14T11:07:29.606Z,94664.00
2023-05-14T11:08:29.637Z,94664.00
2023-05-14T11:09:29.651Z,94662.00
2023-05-14T11:10:29.729Z,94666.00
2023-05-14T11:11:29.726Z,94660.00
2023-05-14T11:12:29.779Z,94660.00
2023-05-14T11:13:29.761Z,94660.00
2023-05-14T11:14:29.847Z,94662.00
2023-05-14T11:15:29.841Z,94660.00
2023-05-14T11:16:29.919Z,94658.00
2023-05-14T11:17:30.718Z,94656.00
2023-05-14T11:18:30.012Z,94656.00
2023-05-14T11:19:30.020Z,94656.00
2023-05-14T11:20:30.027Z,94652.00
2023-05-14T11:21:30.142Z,94650.00
2023-05-14T11:22:30.143Z,94648.00
2023-05-14T11:23:30.160Z,94650.00
2023-05-14T11:24:30.135Z,94644.00
2023-05-14T11:25:30.178Z,94637.00
2023-05-14T11:26:30.259Z,94637.00
2023-05-14T11:27:30.308Z,94644.00
2023-05-14T11:28:30.305Z,94644.00
2023-05-14T11:29:30.295Z,94635.00
2023-05-14T11:30:30.361Z,94637.00
2023-05-14T11:31:30.409Z,94635.00
2023-05-14T11:32:30.659Z,94637.00
2023-05-14T11:33:30.494Z,94637.00
2023-05-14T11:34:30.540Z,94633.00
2023-05-14T11:35:30.494Z,94635.00
2023-05-14T11:36:30.523Z,94633.00
2023-05-14T11:37:30.603Z,94633.00
2023-05-14T11:38:30.673Z,94631.00
2023-05-14T11:39:30.584Z,94633.00
2023-05-14T11:40:30.590Z,94631.00
2023-05-14T11:41:30.636Z,94629.00
2023-05-14T11:42:31.155Z,94629.00
2023-05-14T11:43:30.781Z,94627.00
2023-05-14T11:44:30.717Z,94627.00
2023-05-14T11:45:30.770Z,94625.00
2023-05-14T11:46:30.922Z,94625.00
2023-05-14T11:47:30.839Z,94625.00
2023-05-14T11:48:31.164Z,94627.00